Santa Ines, Brazil
Current Conditions -  °F | °C
As of 2:00 AM on Saturday 29 Nov 2014 (Local Time) from SBSV Reporting Station
Scattered Clouds Scattered Clouds  
Wind Chill: 77°   Ceiling: Unl
Heat Index: 79°   Visibility: 6mi
Dew Point: 70°   Wind: 9mph
Humidity: 78%   Direction: 60°ENE
Pressure: 29.91"   Gusts: NA
Location:  13.29°S, 39.82°W
Report Text: SBSV 290500Z 06008KT 9999 SCT017 25/21 Q1013
Loading
Personal Weather Stations






























Interactive Weather Map New forecast layout! Learn more

10-Day Weather Forecast

Advertisements
Track Severe Weather on mobile